Time;durP1;ratioP1;P1;durP2;ratioP2;P2;SDS_P1;SDS_P2;PMS_P1;PMS_P2;Temp;Humidity;BMP_temperature;BMP_pressure;BME280_temperature;BME280_humidity;BME280_pressure;Samples;Min_cycle;Max_cycle;Signal;HPM_P1;HPM_P2
2022/09/30 00:01:31;;;;;;;3.30;2.45;;;13.40;99.90;;;;;;5068653;28;20063;-86
2022/09/30 00:03:57;;;;;;;3.63;2.30;;;13.40;99.90;;;;;;5070363;28;20372;-84
2022/09/30 00:06:28;;;;;;;6.40;2.70;;;13.40;99.90;;;;;;5068350;28;20024;-83
2022/09/30 00:08:57;;;;;;;8.05;2.95;;;13.40;99.90;;;;;;5068125;28;20028;-82
2022/09/30 00:11:27;;;;;;;6.88;3.60;;;13.40;99.90;;;;;;5070194;28;20024;-86
2022/09/30 00:13:54;;;;;;;5.70;3.00;;;13.40;99.90;;;;;;5068386;28;20318;-85
2022/09/30 00:16:22;;;;;;;4.15;2.22;;;13.40;99.90;;;;;;5044041;28;20454;-86
2022/09/30 00:18:48;;;;;;;3.58;2.75;;;13.40;99.90;;;;;;5065556;28;20503;-85
2022/09/30 00:21:15;;;;;;;4.63;2.35;;;13.40;99.90;;;;;;5069542;28;20089;-83
2022/09/30 00:23:43;;;;;;;3.20;2.22;;;13.30;99.90;;;;;;5069410;28;20045;-85
2022/09/30 00:26:15;;;;;;;4.50;2.40;;;13.30;99.90;;;;;;5068573;28;20027;-86
2022/09/30 00:28:42;;;;;;;3.50;2.65;;;13.30;99.90;;;;;;5068177;28;20031;-85
2022/09/30 00:31:12;;;;;;;4.63;2.50;;;13.30;99.90;;;;;;5068006;28;20029;-86
2022/09/30 00:33:39;;;;;;;3.45;2.58;;;13.30;99.90;;;;;;5068120;28;20504;-86
2022/09/30 00:36:05;;;;;;;4.65;2.67;;;13.30;99.90;;;;;;5068018;28;20035;-86
2022/09/30 00:38:31;;;;;;;3.67;2.70;;;13.30;99.90;;;;;;5067403;28;20488;-84
2022/09/30 00:41:00;;;;;;;3.70;2.60;;;13.20;99.90;;;;;;5068268;28;20042;-85
2022/09/30 00:43:45;;;;;;;4.75;2.67;;;13.30;99.90;;;;;;5067877;28;20028;-85
2022/09/30 00:46:38;;;;;;;6.20;2.85;;;13.30;99.90;;;;;;5062354;28;20021;-85
2022/09/30 00:49:16;;;;;;;4.32;2.17;;;13.30;99.90;;;;;;5055305;28;20017;-86
2022/09/30 00:51:52;;;;;;;4.72;2.92;;;13.30;99.90;;;;;;5067873;28;20107;-86
2022/09/30 00:54:27;;;;;;;5.40;2.60;;;13.30;99.90;;;;;;5067933;28;20078;-84
2022/09/30 00:56:58;;;;;;;4.75;2.30;;;13.30;99.90;;;;;;5067511;28;20013;-86
2022/09/30 00:59:32;;;;;;;5.32;2.97;;;13.30;99.90;;;;;;5067905;28;20024;-86
2022/09/30 01:01:58;;;;;;;3.10;2.50;;;13.30;99.90;;;;;;5056240;28;20473;-86
2022/09/30 01:04:26;;;;;;;3.30;1.92;;;13.30;99.90;;;;;;5069189;28;20031;-84
2022/09/30 01:06:52;;;;;;;3.25;1.90;;;13.30;99.90;;;;;;5068818;28;20528;-86
2022/09/30 01:09:18;;;;;;;3.10;2.47;;;13.30;99.90;;;;;;5067967;28;20434;-86
2022/09/30 01:11:45;;;;;;;5.18;2.45;;;13.30;99.90;;;;;;5069171;28;20115;-86
2022/09/30 01:14:20;;;;;;;5.90;2.60;;;13.30;99.90;;;;;;5071919;28;20066;-84
2022/09/30 01:16:59;;;;;;;3.28;2.45;;;13.30;99.90;;;;;;5048265;28;20044;-84
2022/09/30 01:19:51;;;;;;;3.08;2.10;;;13.30;99.90;;;;;;5071823;28;20032;-86
2022/09/30 01:22:37;;;;;;;4.85;2.88;;;13.30;99.90;;;;;;5070532;28;20149;-86
2022/09/30 01:25:31;;;;;;;2.97;2.28;;;13.30;99.90;;;;;;5071682;28;20071;-86
2022/09/30 01:28:30;;;;;;;4.70;1.98;;;13.20;99.90;;;;;;5064608;28;20052;-85
2022/09/30 01:30:59;;;;;;;4.78;2.30;;;13.20;99.90;;;;;;5071661;28;20094;-83
2022/09/30 01:33:44;;;;;;;5.07;2.53;;;13.20;99.90;;;;;;5073099;28;20078;-85
2022/09/30 01:36:22;;;;;;;6.45;2.75;;;13.20;99.90;;;;;;5071232;28;20074;-86
2022/09/30 01:39:00;;;;;;;2.95;2.35;;;13.20;99.90;;;;;;5071809;28;20033;-85
2022/09/30 01:41:43;;;;;;;4.20;2.40;;;13.20;99.90;;;;;;5072423;28;20041;-86
2022/09/30 01:44:15;;;;;;;6.85;2.88;;;13.20;99.90;;;;;;5071477;28;20503;-85
2022/09/30 01:46:55;;;;;;;4.82;2.60;;;13.30;99.90;;;;;;5071175;28;20024;-85
2022/09/30 01:49:30;;;;;;;2.78;1.92;;;13.30;99.90;;;;;;5070677;28;20033;-86
2022/09/30 01:52:09;;;;;;;3.75;2.10;;;13.30;99.90;;;;;;5070873;28;20030;-85
2022/09/30 01:54:46;;;;;;;3.55;2.63;;;13.30;99.90;;;;;;5071452;28;20062;-85
2022/09/30 01:57:22;;;;;;;5.05;2.63;;;13.30;99.90;;;;;;5072652;28;20558;-86
2022/09/30 01:59:57;;;;;;;3.25;2.88;;;13.30;99.90;;;;;;5067345;28;20361;-84
2022/09/30 02:02:25;;;;;;;5.75;2.78;;;13.20;99.90;;;;;;5061409;28;20029;-86
2022/09/30 02:05:20;;;;;;;4.47;2.60;;;13.20;99.90;;;;;;5070911;28;20496;-86
2022/09/30 02:07:57;;;;;;;3.13;2.17;;;13.20;99.90;;;;;;5050528;28;20041;-84
2022/09/30 02:11:01;;;;;;;4.95;2.58;;;13.10;99.90;;;;;;5071045;28;20357;-85
2022/09/30 02:13:42;;;;;;;5.95;3.33;;;13.10;99.90;;;;;;5069677;28;20033;-86
2022/09/30 02:16:12;;;;;;;4.50;2.28;;;13.10;99.90;;;;;;5049458;28;20016;-85
2022/09/30 02:18:43;;;;;;;3.88;2.53;;;13.10;99.90;;;;;;5052474;28;20119;-86
2022/09/30 02:21:13;;;;;;;3.72;2.00;;;13.10;99.90;;;;;;5050720;28;20116;-84
2022/09/30 02:23:44;;;;;;;6.70;2.40;;;13.10;99.90;;;;;;5052000;28;20057;-86
2022/09/30 02:26:26;;;;;;;3.47;2.60;;;13.10;99.90;;;;;;5066125;28;20051;-84
2022/09/30 02:29:04;;;;;;;2.95;1.95;;;13.10;99.90;;;;;;5043442;28;20104;-86
2022/09/30 02:31:34;;;;;;;7.05;2.20;;;13.10;99.90;;;;;;5065099;28;20039;-85
2022/09/30 02:34:10;;;;;;;4.35;2.58;;;13.00;99.90;;;;;;5056616;28;20021;-84
2022/09/30 02:37:07;;;;;;;5.32;2.55;;;13.10;99.90;;;;;;5051526;28;20063;-82
2022/09/30 02:39:55;;;;;;;3.28;2.25;;;13.00;99.90;;;;;;5049299;28;20055;-85
2022/09/30 02:42:27;;;;;;;2.92;2.25;;;13.00;99.90;;;;;;5064040;28;20017;-84
2022/09/30 02:44:58;;;;;;;3.95;2.40;;;13.00;99.90;;;;;;5051267;28;20605;-86
2022/09/30 02:47:51;;;;;;;4.35;2.65;;;13.10;99.90;;;;;;5071721;28;20016;-86
2022/09/30 02:50:27;;;;;;;3.47;2.38;;;13.10;99.90;;;;;;5071527;28;20028;-84
2022/09/30 02:53:07;;;;;;;2.78;2.25;;;13.10;99.90;;;;;;5055892;28;20397;-85
2022/09/30 02:55:55;;;;;;;2.90;2.00;;;13.10;99.90;;;;;;5050156;28;20029;-85
2022/09/30 02:58:26;;;;;;;4.57;2.67;;;13.00;99.90;;;;;;5050986;28;20029;-85
2022/09/30 03:00:53;;;;;;;3.97;2.38;;;13.00;99.90;;;;;;5053663;28;20032;-85
2022/09/30 03:03:23;;;;;;;4.05;2.47;;;13.00;99.90;;;;;;5049827;28;20364;-86
2022/09/30 03:05:50;;;;;;;4.00;2.42;;;13.00;99.90;;;;;;5051159;28;20075;-86
2022/09/30 03:08:16;;;;;;;3.92;2.60;;;13.00;99.90;;;;;;5051658;28;20432;-86
2022/09/30 03:10:43;;;;;;;3.45;2.17;;;13.00;99.90;;;;;;5071242;28;20032;-85
2022/09/30 03:13:27;;;;;;;4.03;2.40;;;13.00;99.90;;;;;;5054883;28;20509;-86
2022/09/30 03:16:18;;;;;;;4.68;2.50;;;13.00;99.90;;;;;;5050933;28;20021;-86
2022/09/30 03:18:50;;;;;;;3.22;2.60;;;13.00;99.90;;;;;;5042671;28;20090;-86
2022/09/30 03:21:33;;;;;;;4.30;2.30;;;13.00;99.90;;;;;;5049050;28;20032;-84
2022/09/30 03:24:23;;;;;;;4.85;2.28;;;13.00;99.90;;;;;;5043458;28;20048;-86
2022/09/30 03:27:05;;;;;;;3.47;2.08;;;13.00;99.90;;;;;;5050932;28;20082;-84
2022/09/30 03:29:41;;;;;;;5.05;2.03;;;13.00;99.90;;;;;;5050542;28;20037;-83
2022/09/30 03:32:27;;;;;;;2.72;2.15;;;13.00;99.90;;;;;;5049278;28;20551;-86
2022/09/30 03:35:15;;;;;;;4.45;2.05;;;13.10;99.90;;;;;;5048568;28;20025;-84
2022/09/30 03:37:53;;;;;;;4.10;2.35;;;13.00;99.90;;;;;;5045560;28;20549;-86
2022/09/30 03:40:37;;;;;;;4.95;1.88;;;13.00;99.90;;;;;;5036844;28;20112;-86
2022/09/30 03:43:11;;;;;;;3.50;2.30;;;13.00;99.90;;;;;;5048826;28;20356;-86
2022/09/30 03:46:17;;;;;;;4.00;2.90;;;13.00;99.90;;;;;;5049679;28;20047;-85
2022/09/30 03:48:45;;;;;;;5.20;2.55;;;13.00;99.90;;;;;;5062757;28;20124;-86
2022/09/30 03:51:12;;;;;;;3.28;2.20;;;13.00;99.90;;;;;;5049122;28;20021;-85
2022/09/30 03:53:42;;;;;;;5.05;2.45;;;13.00;99.90;;;;;;5049465;28;20033;-86
2022/09/30 03:56:08;;;;;;;3.70;2.28;;;13.00;99.90;;;;;;5049116;28;20021;-86
2022/09/30 03:58:41;;;;;;;9.27;2.10;;;13.00;99.90;;;;;;5048975;28;20029;-86
2022/09/30 04:01:07;;;;;;;3.03;2.47;;;12.90;99.90;;;;;;5048981;28;20056;-84
2022/09/30 04:03:34;;;;;;;3.65;2.08;;;12.90;99.90;;;;;;5048818;28;20026;-85
2022/09/30 04:05:59;;;;;;;2.65;1.95;;;12.90;99.90;;;;;;5048831;28;20029;-85
2022/09/30 04:08:26;;;;;;;3.85;2.35;;;12.90;99.90;;;;;;5050223;28;20032;-84
2022/09/30 04:13:21;;;;;;;5.10;2.35;;;12.90;99.90;;;;;;5068978;28;20052;-90
2022/09/30 04:15:53;;;;;;;3.10;2.22;;;12.80;99.90;;;;;;5054522;28;20029;-89
2022/09/30 04:18:18;;;;;;;3.95;2.38;;;12.80;99.90;;;;;;5029716;28;20489;-89
2022/09/30 04:20:44;;;;;;;3.53;2.20;;;12.80;99.90;;;;;;5053105;28;20036;-86
2022/09/30 04:23:09;;;;;;;9.35;2.30;;;12.80;99.90;;;;;;5062662;28;20112;-89
2022/09/30 04:25:35;;;;;;;3.88;2.67;;;12.90;99.90;;;;;;5068987;28;20029;-89
2022/09/30 04:28:01;;;;;;;3.15;2.17;;;12.90;99.90;;;;;;5073939;28;20024;-89
2022/09/30 04:30:26;;;;;;;5.13;2.47;;;12.80;99.90;;;;;;5055487;28;20119;-88
2022/09/30 04:32:52;;;;;;;3.83;2.30;;;12.90;99.90;;;;;;5067621;28;20394;-89
2022/09/30 04:35:18;;;;;;;4.47;2.00;;;12.80;99.90;;;;;;5049129;28;20095;-89
2022/09/30 04:37:45;;;;;;;3.20;2.10;;;12.90;99.90;;;;;;5072686;28;20074;-88
2022/09/30 04:40:12;;;;;;;3.83;2.60;;;12.80;99.90;;;;;;5050212;28;20031;-89
2022/09/30 04:42:39;;;;;;;3.13;2.60;;;12.80;99.90;;;;;;5055922;28;20107;-89
2022/09/30 04:45:06;;;;;;;3.50;2.60;;;12.80;99.90;;;;;;5068749;28;20033;-90
2022/09/30 04:47:31;;;;;;;5.25;2.40;;;12.80;99.90;;;;;;5054711;28;20146;-89
2022/09/30 04:49:57;;;;;;;4.93;2.05;;;12.70;99.90;;;;;;5073198;28;20028;-85
2022/09/30 04:52:22;;;;;;;2.42;1.80;;;12.70;99.90;;;;;;5067855;28;20036;-89
2022/09/30 04:54:48;;;;;;;2.35;2.00;;;12.70;99.90;;;;;;5055067;28;20028;-89
2022/09/30 04:57:14;;;;;;;4.78;2.13;;;12.70;99.90;;;;;;5054405;28;20083;-88
2022/09/30 04:59:40;;;;;;;4.05;1.90;;;12.70;99.90;;;;;;5050310;28;20029;-86
2022/09/30 05:02:05;;;;;;;2.67;1.77;;;12.60;99.90;;;;;;5052584;28;20101;-86
2022/09/30 05:04:32;;;;;;;1.83;1.67;;;12.70;99.90;;;;;;5055943;28;20063;-89
2022/09/30 05:06:59;;;;;;;2.63;1.58;;;12.60;99.90;;;;;;5058917;28;20033;-88
2022/09/30 05:09:24;;;;;;;2.97;1.67;;;12.60;99.90;;;;;;5071885;28;20039;-88
2022/09/30 05:11:50;;;;;;;5.65;1.85;;;12.60;99.90;;;;;;5065090;28;20113;-88
2022/09/30 05:14:16;;;;;;;2.25;1.70;;;12.60;99.90;;;;;;5069391;28;20025;-89
2022/09/30 05:16:42;;;;;;;2.53;1.95;;;12.60;99.90;;;;;;5025822;28;20032;-88
2022/09/30 05:19:07;;;;;;;2.67;1.80;;;12.60;99.90;;;;;;5070683;28;20021;-89
2022/09/30 05:21:34;;;;;;;3.00;2.00;;;12.60;99.90;;;;;;5048129;28;20036;-86
2022/09/30 05:24:00;;;;;;;2.83;1.73;;;12.50;99.90;;;;;;5061572;28;20079;-86
2022/09/30 05:26:26;;;;;;;2.58;1.85;;;12.50;99.90;;;;;;5061787;28;20044;-88
2022/09/30 05:28:52;;;;;;;4.38;2.33;;;12.60;99.90;;;;;;5052941;28;20425;-88
2022/09/30 05:31:19;;;;;;;3.95;2.47;;;12.60;99.90;;;;;;5070283;28;20063;-89
2022/09/30 05:33:45;;;;;;;3.45;2.58;;;12.60;99.90;;;;;;5054858;28;20028;-88
2022/09/30 05:36:13;;;;;;;3.33;2.17;;;12.60;99.90;;;;;;5064389;28;20024;-89
2022/09/30 05:38:38;;;;;;;2.33;1.75;;;12.60;99.90;;;;;;5057906;28;20032;-88
2022/09/30 05:41:12;;;;;;;4.03;2.65;;;12.60;99.90;;;;;;5056494;28;20484;-89
2022/09/30 05:43:39;;;;;;;4.40;2.97;;;12.50;99.90;;;;;;5054251;28;20111;-88
2022/09/30 05:46:05;;;;;;;5.32;2.40;;;12.50;99.90;;;;;;5048636;28;20547;-86
2022/09/30 05:48:31;;;;;;;6.07;2.55;;;12.50;99.90;;;;;;5052497;28;20029;-90
2022/09/30 05:50:59;;;;;;;3.83;2.15;;;12.50;99.90;;;;;;5070078;28;20063;-88
2022/09/30 05:53:25;;;;;;;3.05;2.00;;;12.50;99.90;;;;;;5050458;28;20115;-88
2022/09/30 05:55:51;;;;;;;2.45;2.00;;;12.50;99.90;;;;;;5047052;28;20105;-87
2022/09/30 05:58:18;;;;;;;4.05;2.17;;;12.50;99.90;;;;;;5055136;28;20032;-86
2022/09/30 06:00:45;;;;;;;2.38;1.90;;;12.50;99.90;;;;;;5054494;28;20017;-86
2022/09/30 06:03:11;;;;;;;2.85;1.92;;;12.40;99.90;;;;;;5067509;28;20032;-87
2022/09/30 06:05:37;;;;;;;3.83;1.77;;;12.40;99.90;;;;;;5060507;28;20021;-87
2022/09/30 06:08:03;;;;;;;2.50;1.63;;;12.40;99.90;;;;;;5056259;28;20028;-88
2022/09/30 06:10:29;;;;;;;4.95;1.83;;;12.40;99.90;;;;;;5059635;28;20028;-90
2022/09/30 06:12:54;;;;;;;3.20;2.45;;;12.40;99.90;;;;;;5051398;28;20033;-90
2022/09/30 06:15:20;;;;;;;3.08;2.05;;;12.50;99.90;;;;;;5054114;28;20089;-88
2022/09/30 06:17:52;;;;;;;3.58;2.00;;;12.40;99.90;;;;;;5045717;28;20052;-89
2022/09/30 06:20:18;;;;;;;2.58;2.00;;;12.40;99.90;;;;;;5079409;28;20043;-88
2022/09/30 06:22:44;;;;;;;2.40;1.73;;;12.40;99.90;;;;;;5095337;28;20016;-89
2022/09/30 06:25:09;;;;;;;4.97;1.88;;;12.40;99.90;;;;;;5076161;28;20390;-88
2022/09/30 06:27:38;;;;;;;3.97;1.80;;;12.40;99.90;;;;;;5092610;28;20024;-89
2022/09/30 06:30:05;;;;;;;2.50;1.80;;;12.40;99.90;;;;;;5072555;28;21760;-88
2022/09/30 06:32:30;;;;;;;3.47;2.08;;;12.40;99.90;;;;;;5089321;28;20032;-86
2022/09/30 06:34:56;;;;;;;2.50;2.20;;;12.50;99.90;;;;;;5089088;28;20043;-90
2022/09/30 06:37:22;;;;;;;2.63;1.83;;;12.50;99.90;;;;;;5094793;28;20038;-88
2022/09/30 06:39:49;;;;;;;4.35;2.42;;;12.50;99.90;;;;;;5076196;28;20020;-86
2022/09/30 06:42:16;;;;;;;4.05;3.00;;;12.40;99.90;;;;;;5090532;28;20028;-90
2022/09/30 06:44:43;;;;;;;3.97;2.50;;;12.50;99.90;;;;;;5080204;28;20031;-88
2022/09/30 06:47:09;;;;;;;4.13;2.20;;;12.50;99.90;;;;;;5086159;28;20035;-88
2022/09/30 06:49:35;;;;;;;3.15;2.05;;;12.50;99.90;;;;;;5093908;28;20036;-88
2022/09/30 06:52:01;;;;;;;3.22;2.45;;;12.50;99.90;;;;;;5075578;28;20476;-88
2022/09/30 06:54:30;;;;;;;4.35;2.90;;;12.50;99.90;;;;;;5078651;28;20037;-90
2022/09/30 06:56:56;;;;;;;3.67;2.60;;;12.50;99.90;;;;;;5083051;28;20028;-89
2022/09/30 06:59:25;;;;;;;4.70;3.10;;;12.40;99.90;;;;;;5076534;28;20090;-88
2022/09/30 07:01:51;;;;;;;10.73;4.40;;;12.40;99.90;;;;;;5093573;28;20020;-88
2022/09/30 07:04:17;;;;;;;5.57;3.67;;;12.40;99.90;;;;;;5072248;28;20029;-88
2022/09/30 07:06:43;;;;;;;6.00;3.55;;;12.50;99.90;;;;;;5081976;28;20462;-88
2022/09/30 07:09:10;;;;;;;6.75;3.53;;;12.40;99.90;;;;;;5092228;28;20109;-88
2022/09/30 07:11:36;;;;;;;6.03;4.18;;;12.40;99.90;;;;;;5069039;28;20074;-88
2022/09/30 07:14:03;;;;;;;5.55;4.20;;;12.40;99.90;;;;;;5071905;28;20497;-88
2022/09/30 07:16:30;;;;;;;7.32;4.22;;;12.40;99.90;;;;;;5091564;28;20482;-89
2022/09/30 07:18:58;;;;;;;5.53;3.75;;;12.40;99.90;;;;;;5052366;28;20408;-89
2022/09/30 07:21:24;;;;;;;6.47;4.07;;;12.50;99.90;;;;;;5090544;28;20105;-89
2022/09/30 07:23:51;;;;;;;4.70;3.63;;;12.40;99.90;;;;;;5081410;28;20027;-89
2022/09/30 07:26:22;;;;;;;4.50;3.58;;;12.40;99.90;;;;;;5089638;28;20028;-89
2022/09/30 07:28:49;;;;;;;4.80;3.40;;;12.50;99.90;;;;;;5097649;28;20046;-89
2022/09/30 07:31:18;;;;;;;5.43;3.60;;;12.50;99.90;;;;;;5091538;28;20423;-85
2022/09/30 07:33:44;;;;;;;4.03;2.78;;;12.40;99.90;;;;;;5079051;28;20031;-89
2022/09/30 07:36:11;;;;;;;7.70;3.65;;;12.40;99.90;;;;;;5095085;28;20091;-87
2022/09/30 07:38:39;;;;;;;6.32;3.08;;;12.40;99.90;;;;;;5074942;28;20031;-89
2022/09/30 07:41:06;;;;;;;4.45;3.30;;;12.40;99.90;;;;;;5094555;28;20112;-91
2022/09/30 07:43:36;;;;;;;4.63;3.28;;;12.40;99.90;;;;;;5097657;28;20020;-88
2022/09/30 07:46:15;;;;;;;5.32;3.08;;;12.40;99.90;;;;;;5071459;28;20024;-86
2022/09/30 07:48:44;;;;;;;4.50;3.22;;;12.40;99.90;;;;;;5087739;28;20024;-88
2022/09/30 07:51:12;;;;;;;4.53;3.50;;;12.40;99.90;;;;;;5074930;28;20039;-88
2022/09/30 07:53:39;;;;;;;4.95;3.45;;;12.50;99.90;;;;;;5063876;28;20516;-88
2022/09/30 07:56:06;;;;;;;4.85;3.80;;;12.40;99.90;;;;;;5088715;28;20466;-86
2022/09/30 07:58:32;;;;;;;5.57;3.13;;;12.40;99.90;;;;;;5090263;28;20071;-85
2022/09/30 08:00:57;;;;;;;5.10;2.90;;;12.40;99.90;;;;;;5082471;28;20044;-88
2022/09/30 08:03:23;;;;;;;5.18;3.10;;;12.40;99.90;;;;;;5075834;28;20169;-89
2022/09/30 08:05:49;;;;;;;5.30;3.13;;;12.40;99.90;;;;;;5077455;28;20020;-88
2022/09/30 08:08:16;;;;;;;6.65;3.95;;;12.40;99.90;;;;;;5092461;28;20024;-89
2022/09/30 08:10:41;;;;;;;6.57;3.10;;;12.40;99.90;;;;;;5071504;28;20409;-88
2022/09/30 08:13:09;;;;;;;5.10;3.10;;;12.40;99.90;;;;;;5073647;28;20046;-89
2022/09/30 08:15:34;;;;;;;5.03;3.00;;;12.40;99.90;;;;;;5073754;28;20035;-89
2022/09/30 08:18:00;;;;;;;4.82;2.92;;;12.40;99.90;;;;;;5047533;28;20408;-86
2022/09/30 08:20:26;;;;;;;5.47;3.38;;;12.40;99.90;;;;;;5073318;28;20031;-89
2022/09/30 08:22:55;;;;;;;4.82;3.28;;;12.40;99.90;;;;;;5074161;28;20027;-88
2022/09/30 08:25:22;;;;;;;4.00;2.80;;;12.50;99.90;;;;;;5090505;28;20028;-88
2022/09/30 08:27:48;;;;;;;5.85;3.15;;;12.40;99.90;;;;;;5092007;28;20016;-89
2022/09/30 08:30:14;;;;;;;5.80;3.28;;;12.40;99.90;;;;;;5071040;28;20028;-86
2022/09/30 08:32:40;;;;;;;4.45;3.10;;;12.40;99.90;;;;;;5089804;28;20028;-86
2022/09/30 08:35:05;;;;;;;5.10;3.17;;;12.40;99.90;;;;;;5072787;28;20119;-86
2022/09/30 08:37:31;;;;;;;4.78;3.28;;;12.40;99.90;;;;;;5072479;28;20036;-86
2022/09/30 08:39:57;;;;;;;4.07;2.90;;;12.40;99.90;;;;;;5069102;28;20035;-86
2022/09/30 08:42:41;;;;;;;4.30;3.00;;;12.40;99.90;;;;;;5090914;28;20538;-88
2022/09/30 08:45:25;;;;;;;4.65;3.05;;;12.40;99.90;;;;;;5089453;28;20047;-89
2022/09/30 08:48:09;;;;;;;5.30;3.70;;;12.40;99.90;;;;;;5090242;28;20044;-88
2022/09/30 08:51:12;;;;;;;4.93;3.35;;;12.50;99.90;;;;;;5072256;28;20028;-89
2022/09/30 08:53:41;;;;;;;4.95;3.20;;;12.50;99.90;;;;;;5090075;28;20043;-90
2022/09/30 08:56:11;;;;;;;4.78;3.58;;;12.50;99.90;;;;;;5077885;28;20031;-87
2022/09/30 08:58:42;;;;;;;5.38;3.15;;;12.40;99.90;;;;;;5071846;28;20477;-88
2022/09/30 09:01:31;;;;;;;5.55;3.72;;;12.50;99.90;;;;;;5073973;28;20459;-90
2022/09/30 09:03:58;;;;;;;6.82;3.53;;;12.50;99.90;;;;;;5089529;28;20024;-89
2022/09/30 09:06:30;;;;;;;4.10;2.95;;;12.50;99.90;;;;;;5070874;28;20050;-86
2022/09/30 09:09:07;;;;;;;5.88;2.92;;;12.40;99.90;;;;;;5077477;28;20032;-90
2022/09/30 09:11:48;;;;;;;4.25;3.13;;;12.40;99.90;;;;;;5087657;28;20047;-88
2022/09/30 09:14:43;;;;;;;5.18;2.90;;;12.50;99.90;;;;;;5088940;28;20024;-89
2022/09/30 09:17:19;;;;;;;4.35;3.20;;;12.40;99.90;;;;;;5069843;28;20090;-88
2022/09/30 09:19:49;;;;;;;4.50;3.13;;;12.40;99.90;;;;;;5075164;28;20044;-88
2022/09/30 09:22:15;;;;;;;5.90;3.67;;;12.40;99.90;;;;;;5096740;28;20043;-88
2022/09/30 09:24:44;;;;;;;4.25;2.95;;;12.40;99.90;;;;;;5074378;28;20024;-87
2022/09/30 09:27:20;;;;;;;5.60;3.25;;;12.40;99.90;;;;;;5088192;28;20031;-87
2022/09/30 09:29:55;;;;;;;4.63;3.03;;;12.40;99.90;;;;;;5100252;28;20060;-88
2022/09/30 09:32:20;;;;;;;5.30;2.75;;;12.40;99.90;;;;;;5071987;28;20024;-87
2022/09/30 09:35:00;;;;;;;4.07;2.92;;;12.40;99.90;;;;;;5079650;28;20070;-87
2022/09/30 09:38:25;;;;;;;6.03;3.15;;;12.40;99.90;;;;;;5078733;28;20027;-87
2022/09/30 09:41:11;;;;;;;5.15;2.80;;;12.40;99.90;;;;;;5076398;28;20552;-88
2022/09/30 09:44:11;;;;;;;4.70;3.00;;;12.40;99.90;;;;;;5070577;28;20074;-87
2022/09/30 09:46:47;;;;;;;3.92;2.90;;;12.40;99.90;;;;;;5095172;28;20025;-87
2022/09/30 09:49:16;;;;;;;5.07;2.60;;;12.40;99.90;;;;;;5098835;28;20074;-87
2022/09/30 09:51:47;;;;;;;4.22;3.38;;;12.40;99.90;;;;;;5073860;28;20024;-87
2022/09/30 09:54:17;;;;;;;6.07;2.78;;;12.40;99.90;;;;;;5089419;28;20020;-88
2022/09/30 09:56:43;;;;;;;5.43;3.42;;;12.40;99.90;;;;;;5100249;28;20020;-88
2022/09/30 09:59:17;;;;;;;4.68;2.97;;;12.40;99.90;;;;;;5078201;28;20026;-87
2022/09/30 10:01:51;;;;;;;4.60;2.90;;;12.40;99.90;;;;;;5073069;28;20550;-87
2022/09/30 10:04:26;;;;;;;5.95;3.95;;;12.40;99.90;;;;;;5079584;28;20111;-87
2022/09/30 10:06:58;;;;;;;5.05;2.80;;;12.40;99.90;;;;;;5073804;28;20020;-88
2022/09/30 10:09:39;;;;;;;8.38;2.97;;;12.40;99.90;;;;;;5080140;28;20020;-87
2022/09/30 10:12:04;;;;;;;4.07;3.03;;;12.40;99.90;;;;;;5078966;28;20025;-87
2022/09/30 10:14:45;;;;;;;6.88;3.00;;;12.40;99.90;;;;;;5078816;28;20039;-87
2022/09/30 10:17:35;;;;;;;4.00;2.65;;;12.40;99.90;;;;;;5082255;28;20035;-87
2022/09/30 10:20:23;;;;;;;6.15;3.50;;;12.40;99.90;;;;;;5090020;28;20024;-87
2022/09/30 10:22:49;;;;;;;4.15;2.90;;;12.40;99.90;;;;;;5093805;28;20023;-87
2022/09/30 10:25:19;;;;;;;5.70;2.88;;;12.40;99.90;;;;;;5073810;28;20274;-88
2022/09/30 10:27:56;;;;;;;6.05;3.45;;;12.40;99.90;;;;;;5071487;28;20020;-89
2022/09/30 10:30:52;;;;;;;4.35;2.95;;;12.40;99.90;;;;;;5079534;28;20035;-87
2022/09/30 10:33:24;;;;;;;5.35;2.67;;;12.40;99.90;;;;;;5080296;28;20120;-88
2022/09/30 10:36:05;;;;;;;3.85;2.60;;;12.50;99.90;;;;;;5072242;28;20037;-87
2022/09/30 10:38:33;;;;;;;4.32;2.67;;;12.40;99.90;;;;;;5093626;28;20481;-88
2022/09/30 10:41:00;;;;;;;5.03;2.90;;;12.40;99.90;;;;;;5082544;28;20028;-86
2022/09/30 10:43:42;;;;;;;3.65;2.70;;;12.40;99.90;;;;;;5075237;28;20039;-87
2022/09/30 10:46:09;;;;;;;3.72;2.75;;;12.50;99.90;;;;;;5080302;28;20017;-88
2022/09/30 10:48:36;;;;;;;3.72;2.90;;;12.50;99.90;;;;;;5090148;28;20474;-87
2022/09/30 10:51:05;;;;;;;4.30;2.50;;;12.50;99.90;;;;;;5088312;28;20025;-87
2022/09/30 10:53:34;;;;;;;3.83;2.40;;;12.50;99.90;;;;;;5081770;28;20040;-87
2022/09/30 10:56:00;;;;;;;4.68;2.22;;;12.50;99.90;;;;;;5074799;28;20454;-87
2022/09/30 10:58:25;;;;;;;3.67;2.78;;;12.50;99.90;;;;;;5091185;28;20031;-87
2022/09/30 11:01:01;;;;;;;3.40;2.28;;;12.50;99.90;;;;;;5093681;28;20566;-88
2022/09/30 11:03:38;;;;;;;3.38;2.40;;;12.50;99.90;;;;;;5077725;28;20069;-88
2022/09/30 11:06:06;;;;;;;2.58;1.70;;;12.50;99.90;;;;;;5081251;28;20024;-87
2022/09/30 11:08:52;;;;;;;4.30;2.58;;;12.50;99.90;;;;;;5094203;28;20164;-86
2022/09/30 11:11:23;;;;;;;3.75;2.17;;;12.50;99.90;;;;;;5085897;28;20399;-87
2022/09/30 11:14:15;;;;;;;3.83;1.88;;;12.50;99.90;;;;;;5093956;28;20020;-87
2022/09/30 11:16:47;;;;;;;3.50;2.00;;;12.50;99.90;;;;;;5070019;28;20092;-83
2022/09/30 11:19:20;;;;;;;2.47;1.60;;;12.50;99.90;;;;;;5091459;28;20123;-87
2022/09/30 11:22:27;;;;;;;2.47;2.15;;;12.50;99.90;;;;;;5078393;28;20031;-86
2022/09/30 11:24:56;;;;;;;3.00;1.83;;;12.50;99.90;;;;;;5057707;28;20894;-87
2022/09/30 11:27:49;;;;;;;3.47;1.83;;;12.50;99.90;;;;;;5097150;28;20058;-87
2022/09/30 11:30:30;;;;;;;3.17;2.08;;;12.50;99.90;;;;;;5084134;28;20032;-88
2022/09/30 11:33:20;;;;;;;3.17;1.90;;;12.50;99.90;;;;;;5077631;28;20035;-86
2022/09/30 11:36:28;;;;;;;1.95;1.63;;;12.50;99.90;;;;;;5071280;28;20035;-87
2022/09/30 11:39:27;;;;;;;2.38;1.90;;;12.50;99.90;;;;;;5073598;28;20036;-87
2022/09/30 11:42:12;;;;;;;2.35;1.65;;;12.50;99.90;;;;;;5085065;28;20045;-87
2022/09/30 11:44:48;;;;;;;3.50;1.90;;;12.50;99.90;;;;;;5102097;28;20488;-87
2022/09/30 11:47:29;;;;;;;2.35;1.70;;;12.50;99.90;;;;;;5073914;28;20064;-86
2022/09/30 11:50:26;;;;;;;3.03;1.88;;;12.50;99.90;;;;;;5100050;28;20039;-87
2022/09/30 11:53:04;;;;;;;1.90;1.80;;;12.50;99.90;;;;;;5089883;28;20038;-87
2022/09/30 11:55:42;;;;;;;2.38;1.70;;;12.50;99.90;;;;;;5087539;28;20116;-88
2022/09/30 11:58:20;;;;;;;2.55;1.95;;;12.50;99.90;;;;;;5077160;28;20040;-87
2022/09/30 12:00:52;;;;;;;2.70;1.70;;;12.50;99.90;;;;;;5081431;28;20024;-87
2022/09/30 12:03:38;;;;;;;3.35;1.90;;;12.50;99.90;;;;;;5097627;28;20303;-87
2022/09/30 12:06:44;;;;;;;2.10;1.65;;;12.50;99.90;;;;;;5082400;28;20024;-87
2022/09/30 12:09:48;;;;;;;2.85;1.98;;;12.50;99.90;;;;;;5084257;28;20028;-87
2022/09/30 12:12:17;;;;;;;3.65;1.50;;;12.50;99.90;;;;;;5039867;28;20028;-87
2022/09/30 12:14:56;;;;;;;2.53;1.60;;;12.50;99.90;;;;;;5101989;28;20020;-87
2022/09/30 12:17:33;;;;;;;6.38;1.83;;;12.50;99.90;;;;;;5087499;28;20046;-86
2022/09/30 12:20:09;;;;;;;1.60;1.48;;;12.50;99.90;;;;;;5111025;28;20035;-87
2022/09/30 12:22:43;;;;;;;3.17;1.98;;;12.50;99.90;;;;;;5105559;28;20028;-90
2022/09/30 12:25:26;;;;;;;2.65;1.80;;;12.50;99.90;;;;;;5100026;28;20021;-87
2022/09/30 12:31:26;;;;;;;3.40;1.58;;;12.50;99.90;;;;;;5102340;28;20288;-87
2022/09/30 12:33:59;;;;;;;3.80;1.77;;;12.50;99.90;;;;;;5085514;28;20028;-86
2022/09/30 12:36:54;;;;;;;3.97;1.98;;;12.50;99.90;;;;;;5082122;28;20028;-87
2022/09/30 12:39:28;;;;;;;3.85;2.10;;;12.50;99.90;;;;;;5084612;28;20008;-86
2022/09/30 12:42:22;;;;;;;2.83;1.85;;;12.50;99.90;;;;;;5100256;28;20055;-88
2022/09/30 12:45:07;;;;;;;2.75;1.70;;;12.50;99.90;;;;;;5085215;28;20027;-88
2022/09/30 12:47:53;;;;;;;3.08;1.70;;;12.50;99.90;;;;;;5087557;28;20070;-88
2022/09/30 12:50:23;;;;;;;4.47;1.70;;;12.50;99.90;;;;;;5106206;28;20966;-87
2022/09/30 12:52:49;;;;;;;2.10;1.50;;;12.50;99.90;;;;;;5095194;28;20199;-87
2022/09/30 12:55:24;;;;;;;2.80;1.50;;;12.60;99.90;;;;;;5105064;28;20119;-88
2022/09/30 12:57:51;;;;;;;6.00;1.80;;;12.50;99.90;;;;;;5102350;28;20158;-88
2022/09/30 13:00:23;;;;;;;4.15;2.03;;;12.50;99.90;;;;;;5085967;28;20028;-88
2022/09/30 13:03:17;;;;;;;3.55;2.13;;;12.60;99.90;;;;;;5103362;28;20031;-89
2022/09/30 13:06:15;;;;;;;4.50;1.97;;;12.60;99.90;;;;;;5088397;28;20012;-86
2022/09/30 13:08:44;;;;;;;2.45;1.88;;;12.60;99.90;;;;;;5092673;28;20282;-87
2022/09/30 13:11:36;;;;;;;2.60;1.85;;;12.60;99.90;;;;;;5084204;28;20275;-88
2022/09/30 13:14:14;;;;;;;2.45;1.70;;;12.60;99.90;;;;;;5101259;28;20050;-85
2022/09/30 13:17:07;;;;;;;3.30;2.28;;;12.60;99.90;;;;;;5099305;28;20032;-87
2022/09/30 13:19:39;;;;;;;4.70;2.38;;;12.60;99.90;;;;;;5089872;28;20024;-87
2022/09/30 13:22:17;;;;;;;3.88;1.85;;;12.60;99.90;;;;;;5093080;28;20020;-87
2022/09/30 13:25:03;;;;;;;2.20;2.00;;;12.60;99.90;;;;;;5107426;28;20028;-86
2022/09/30 13:27:35;;;;;;;2.63;1.95;;;12.60;99.90;;;;;;5091362;28;20502;-87